createdAt,value
2018-04-18T03:00:57.537Z,87.38
2018-04-18T03:01:57.780Z,87.86
2018-04-18T03:02:57.839Z,88.15
2018-04-18T03:03:57.997Z,87.95
2018-04-18T03:04:58.157Z,87.10
2018-04-18T03:05:58.338Z,86.91
2018-04-18T03:06:58.443Z,86.91
2018-04-18T03:07:58.625Z,87.38
2018-04-18T03:08:58.833Z,88.34
2018-04-18T03:09:58.979Z,88.53
2018-04-18T03:10:59.136Z,88.34
2018-04-18T03:11:59.292Z,88.53
2018-04-18T03:12:59.407Z,87.76
2018-04-18T03:13:59.589Z,88.43
2018-04-18T03:14:59.790Z,88.62
2018-04-18T03:15:59.916Z,87.76
2018-04-18T03:17:00.117Z,87.95
2018-04-18T03:18:00.299Z,87.76
2018-04-18T03:19:00.444Z,88.05
2018-04-18T03:20:00.581Z,87.67
2018-04-18T03:21:00.743Z,87.95
2018-04-18T03:22:00.906Z,87.38
2018-04-18T03:23:01.072Z,86.05
2018-04-18T03:24:01.274Z,86.15
2018-04-18T03:25:01.383Z,85.77
2018-04-18T03:26:01.503Z,85.77
2018-04-18T03:27:01.705Z,85.77
2018-04-18T03:28:01.828Z,85.96
2018-04-18T03:29:01.977Z,85.96
2018-04-18T03:30:02.152Z,86.34
2018-04-18T03:31:02.278Z,86.15
2018-04-18T03:32:02.506Z,86.05
2018-04-18T03:33:02.672Z,85.96
2018-04-18T03:34:02.804Z,86.15
2018-04-18T03:35:02.963Z,85.96
2018-04-18T03:36:03.100Z,85.96
2018-04-18T03:37:03.262Z,85.72
2018-04-18T03:38:03.409Z,86.20
2018-04-18T03:39:03.556Z,85.82
2018-04-18T03:40:03.752Z,85.91
2018-04-18T03:41:03.920Z,86.20
2018-04-18T03:42:04.064Z,86.58
2018-04-18T03:43:04.237Z,86.77
2018-04-18T03:44:04.348Z,86.96
2018-04-18T03:45:04.578Z,88.01
2018-04-18T03:46:04.708Z,88.01
2018-04-18T03:47:04.908Z,88.01
2018-04-18T03:48:05.046Z,87.05
2018-04-18T03:49:05.219Z,86.96
2018-04-18T03:50:05.420Z,86.96
2018-04-18T03:51:05.554Z,86.68
2018-04-18T03:52:05.745Z,87.15
2018-04-18T03:53:05.970Z,87.53
2018-04-18T03:54:06.102Z,87.82
2018-04-18T03:55:06.296Z,87.91
2018-04-18T03:56:06.457Z,88.20
2018-04-18T03:57:06.654Z,89.05
2018-04-18T03:58:06.792Z,89.43
2018-04-18T03:59:06.927Z,89.57
2018-04-18T04:00:07.275Z,89.38
2018-04-18T04:01:07.261Z,89.38
2018-04-18T04:02:07.453Z,88.39
2018-04-18T04:03:07.577Z,87.62
2018-04-18T04:04:07.797Z,88.67
2018-04-18T04:05:07.884Z,88.57
2018-04-18T04:06:08.075Z,88.76
2018-04-18T04:07:08.215Z,89.33
2018-04-18T04:08:08.380Z,89.53
2018-04-18T04:09:08.535Z,88.95
2018-04-18T04:10:08.727Z,88.20
2018-04-18T04:11:08.839Z,86.96
2018-04-18T04:12:09.126Z,86.87
2018-04-18T04:13:09.268Z,87.05
2018-04-18T04:14:09.373Z,86.77
2018-04-18T04:15:09.564Z,86.58
2018-04-18T04:16:09.652Z,86.96
2018-04-18T04:17:09.860Z,87.15
2018-04-18T04:18:10.088Z,87.24
2018-04-18T04:19:10.239Z,87.91
2018-04-18T04:20:10.408Z,87.91
2018-04-18T04:21:10.506Z,87.72
2018-04-18T04:22:10.699Z,87.34
2018-04-18T04:23:10.822Z,87.39
2018-04-18T04:24:11.004Z,87.72
2018-04-18T04:25:11.180Z,87.96
2018-04-18T04:26:11.267Z,87.91
2018-04-18T04:27:11.516Z,87.72
2018-04-18T04:28:11.686Z,88.48
2018-04-18T04:29:11.850Z,89.24
2018-04-18T04:30:11.955Z,89.62
2018-04-18T04:31:12.190Z,89.72
2018-04-18T04:32:12.288Z,89.53
2018-04-18T04:33:12.523Z,89.24
2018-04-18T04:34:12.678Z,89.62
2018-04-18T04:35:12.841Z,89.43
2018-04-18T04:36:13.023Z,89.24
2018-04-18T04:37:13.137Z,89.24
2018-04-18T04:38:13.313Z,88.95
2018-04-18T04:39:13.545Z,88.48
2018-04-18T04:40:13.631Z,88.20
2018-04-18T04:41:13.765Z,87.72
2018-04-18T04:42:14.000Z,87.91
2018-04-18T04:43:14.139Z,87.76
2018-04-18T04:44:14.289Z,87.53
2018-04-18T04:45:14.440Z,87.15
2018-04-18T04:46:14.637Z,86.11
2018-04-18T04:47:14.806Z,86.01
2018-04-18T04:48:14.926Z,86.30
2018-04-18T04:49:15.107Z,85.82
2018-04-18T04:50:15.283Z,86.20
2018-04-18T04:51:15.378Z,85.82
2018-04-18T04:52:15.656Z,86.68
2018-04-18T04:53:15.749Z,86.58
2018-04-18T04:54:15.839Z,86.11
2018-04-18T04:55:16.027Z,86.68
2018-04-18T04:56:16.151Z,86.68
2018-04-18T04:57:16.360Z,86.96
2018-04-18T04:58:16.527Z,85.91
2018-04-18T04:59:16.610Z,86.01
2018-04-18T05:00:16.803Z,85.82
2018-04-18T05:01:17.024Z,85.82
2018-04-18T05:02:17.108Z,86.01
2018-04-18T05:03:17.279Z,86.11
2018-04-18T05:04:17.475Z,86.30
2018-04-18T05:05:17.639Z,85.91
2018-04-18T05:06:17.716Z,86.20
2018-04-18T05:07:17.883Z,86.01
2018-04-18T05:08:18.070Z,86.20
2018-04-18T05:09:18.249Z,86.20
2018-04-18T05:10:18.385Z,86.87
2018-04-18T05:11:18.580Z,86.87
2018-04-18T05:12:18.733Z,86.58
2018-04-18T05:13:18.847Z,86.49
2018-04-18T05:14:19.015Z,86.58
2018-04-18T05:15:19.271Z,87.24
2018-04-18T05:16:19.349Z,86.39
2018-04-18T05:17:19.569Z,85.91
2018-04-18T05:18:19.746Z,86.01
2018-04-18T05:19:19.919Z,86.20
2018-04-18T05:20:20.026Z,86.20
2018-04-18T05:21:20.196Z,85.91
2018-04-18T05:22:20.370Z,86.20
2018-04-18T05:23:20.509Z,86.11
2018-04-18T05:24:20.661Z,86.58
2018-04-18T05:25:20.837Z,86.96
2018-04-18T05:26:21.077Z,86.49
2018-04-18T05:27:21.226Z,86.77
2018-04-18T05:28:21.364Z,86.96
2018-04-18T05:29:21.509Z,87.05
2018-04-18T05:30:21.602Z,86.77
2018-04-18T05:31:21.855Z,86.96
2018-04-18T05:32:21.996Z,87.01
2018-04-18T05:33:22.101Z,86.96
2018-04-18T05:34:22.240Z,87.57
2018-04-18T05:35:22.504Z,86.82
2018-04-18T05:36:22.708Z,86.63
2018-04-18T05:37:22.992Z,87.10
2018-04-18T05:38:23.194Z,87.19
2018-04-18T05:39:23.303Z,86.53
2018-04-18T05:40:23.386Z,86.72
2018-04-18T05:41:23.644Z,86.43
2018-04-18T05:42:23.707Z,87.01
2018-04-18T05:43:23.839Z,86.53
2018-04-18T05:44:24.006Z,86.24
2018-04-18T05:45:24.133Z,86.43
2018-04-18T05:46:24.371Z,86.43
2018-04-18T05:47:24.477Z,85.77
2018-04-18T05:48:24.637Z,86.05
2018-04-18T05:49:24.749Z,85.86
2018-04-18T05:50:24.998Z,85.86
2018-04-18T05:51:25.145Z,86.15
2018-04-18T05:52:25.362Z,85.77
2018-04-18T05:53:25.488Z,85.91
2018-04-18T05:54:25.675Z,85.43
2018-04-18T05:55:25.732Z,85.72
2018-04-18T05:56:25.960Z,85.72
2018-04-18T05:57:26.078Z,86.29
2018-04-18T05:58:26.243Z,86.47
2018-04-18T05:59:26.396Z,86.00
2018-04-18T06:00:26.606Z,86.10
2018-04-18T06:01:26.771Z,85.95
2018-04-18T06:02:26.892Z,85.95
2018-04-18T06:03:27.095Z,86.05
2018-04-18T06:04:27.193Z,85.76
2018-04-18T06:05:27.334Z,85.57
2018-04-18T06:06:27.492Z,85.57
2018-04-18T06:07:27.691Z,85.76
2018-04-18T06:08:27.896Z,85.14
2018-04-18T06:09:28.038Z,84.76
2018-04-18T06:10:28.129Z,84.38
2018-04-18T06:11:28.357Z,83.90
2018-04-18T06:12:28.514Z,84.38
2018-04-18T06:13:28.620Z,84.19
2018-04-18T06:14:28.828Z,84.09
2018-04-18T06:15:29.020Z,84.28
2018-04-18T06:16:29.161Z,84.28
2018-04-18T06:17:29.265Z,84.00
2018-04-18T06:18:29.489Z,84.09
2018-04-18T06:19:29.601Z,83.85
2018-04-18T06:20:29.785Z,83.65
2018-04-18T06:21:30.050Z,83.65
2018-04-18T06:22:30.140Z,83.47
2018-04-18T06:23:30.308Z,83.37
2018-04-18T06:24:30.479Z,83.65
2018-04-18T06:25:30.630Z,84.04
2018-04-18T06:26:30.802Z,83.56
2018-04-18T06:27:30.949Z,83.47
2018-04-18T06:28:31.071Z,82.93
2018-04-18T06:29:31.216Z,82.65
2018-04-18T06:30:31.411Z,82.46
2018-04-18T06:31:31.559Z,81.51
2018-04-18T06:32:31.767Z,81.70
2018-04-18T06:33:31.950Z,81.60
2018-04-18T06:34:32.169Z,81.13
2018-04-18T06:35:32.331Z,81.03
2018-04-18T06:36:32.412Z,81.26
2018-04-18T06:37:32.580Z,81.55
2018-04-18T06:38:32.776Z,81.36
2018-04-18T06:39:32.919Z,81.07
2018-04-18T06:40:33.145Z,81.07
2018-04-18T06:41:33.283Z,81.46
2018-04-18T06:42:33.433Z,81.65
2018-04-18T06:43:33.553Z,81.26
2018-04-18T06:44:33.766Z,80.44
2018-04-18T06:45:33.958Z,80.60
2018-04-18T06:46:34.120Z,80.16
2018-04-18T06:47:34.281Z,80.54
2018-04-18T06:48:34.468Z,80.16
2018-04-18T06:49:34.634Z,80.26
2018-04-18T06:50:34.723Z,80.35
2018-04-18T06:51:34.902Z,80.44
2018-04-18T06:52:35.167Z,80.07
2018-04-18T06:53:35.265Z,78.92
2018-04-18T06:54:35.465Z,78.86
2018-04-18T06:55:35.611Z,79.44
2018-04-18T06:56:35.788Z,79.15
2018-04-18T06:57:35.907Z,79.25
2018-04-18T06:58:36.097Z,79.82
2018-04-18T06:59:36.233Z,79.35
2018-04-18T07:00:36.435Z,78.96
2018-04-18T07:01:36.600Z,78.96
2018-04-18T07:02:36.712Z,78.58
2018-04-18T07:03:36.870Z,78.30
2018-04-18T07:04:36.996Z,78.14
2018-04-18T07:05:37.186Z,77.95
2018-04-18T07:06:37.373Z,77.28
2018-04-18T07:07:37.576Z,75.66
2018-04-18T07:08:37.721Z,74.61
2018-04-18T07:09:37.898Z,75.22
2018-04-18T07:10:38.053Z,74.37
2018-04-18T07:11:38.166Z,73.79
2018-04-18T07:12:38.410Z,74.27
2018-04-18T07:13:38.469Z,73.83
2018-04-18T07:14:38.701Z,73.63
2018-04-18T07:15:38.820Z,74.59
2018-04-18T07:16:38.989Z,73.54
2018-04-18T07:17:39.201Z,72.49
2018-04-18T07:18:39.313Z,73.00
2018-04-18T07:19:39.495Z,72.91
2018-04-18T07:20:39.633Z,72.62
2018-04-18T07:21:39.815Z,71.57
2018-04-18T07:22:40.011Z,71.28
2018-04-18T07:23:40.075Z,71.99
2018-04-18T07:24:40.278Z,71.70
2018-04-18T07:25:40.401Z,71.32
2018-04-18T07:26:40.661Z,71.80
2018-04-18T07:27:40.797Z,72.18
2018-04-18T07:28:40.933Z,72.37
2018-04-18T07:29:41.146Z,71.70
2018-04-18T07:30:41.243Z,70.78
2018-04-18T07:31:41.446Z,70.97
2018-04-18T07:32:41.609Z,70.78
2018-04-18T07:33:41.757Z,70.34
2018-04-18T07:34:41.914Z,70.53
2018-04-18T07:35:42.081Z,69.38
2018-04-18T07:36:42.248Z,69.19
2018-04-18T07:37:42.452Z,68.94
2018-04-18T07:38:42.595Z,67.54
2018-04-18T07:39:42.705Z,65.23
2018-04-18T07:40:42.880Z,65.33
2018-04-18T07:41:43.118Z,64.98
2018-04-18T07:42:43.235Z,63.29
2018-04-18T07:43:43.382Z,62.07
2018-04-18T07:44:43.568Z,61.59
2018-04-18T07:45:43.707Z,60.66
2018-04-18T07:46:43.907Z,58.00
2018-04-18T07:47:44.087Z,58.20
2018-04-18T07:48:44.203Z,59.06
2018-04-18T07:49:44.333Z,59.66
2018-04-18T07:50:44.518Z,56.78
2018-04-18T07:51:44.738Z,56.33
2018-04-18T07:52:44.889Z,55.18
2018-04-18T07:53:45.092Z,56.14
2018-04-18T07:54:45.219Z,54.05
2018-04-18T07:55:45.351Z,54.56
2018-04-18T07:56:45.538Z,55.23
2018-04-18T07:57:45.689Z,53.59
2018-04-18T07:58:45.850Z,54.14
2018-04-18T07:59:46.001Z,53.09
2018-04-18T08:00:46.155Z,53.21
2018-04-18T08:01:46.324Z,51.41
2018-04-18T08:02:46.471Z,50.09
2018-04-18T08:03:46.645Z,48.66
2018-04-18T08:04:46.813Z,48.95
2018-04-18T08:05:46.993Z,49.43
2018-04-18T08:06:47.227Z,48.88
2018-04-18T08:07:47.351Z,47.63
2018-04-18T08:08:47.552Z,46.95
2018-04-18T08:09:47.714Z,47.41
2018-04-18T08:10:47.875Z,48.23
2018-04-18T08:11:48.024Z,47.05
2018-04-18T08:12:48.170Z,48.21
2018-04-18T08:13:48.361Z,48.59
2018-04-18T08:14:48.497Z,47.72
2018-04-18T08:15:48.737Z,47.07
2018-04-18T08:16:48.950Z,47.53
2018-04-18T08:17:49.078Z,46.37
2018-04-18T08:18:49.301Z,48.90
2018-04-18T08:19:49.419Z,47.82
2018-04-18T08:20:49.589Z,47.22
2018-04-18T08:21:49.769Z,49.27
2018-04-18T08:22:49.864Z,46.49
2018-04-18T08:23:50.059Z,46.03
2018-04-18T08:24:50.219Z,45.55
2018-04-18T08:25:50.429Z,46.42
2018-04-18T08:26:50.607Z,45.26
2018-04-18T08:27:50.730Z,44.10
2018-04-18T08:28:50.938Z,43.84
2018-04-18T08:29:51.081Z,43.16
2018-04-18T08:30:51.292Z,44.34
2018-04-18T08:31:51.472Z,43.28
2018-04-18T08:32:51.614Z,42.43
2018-04-18T08:33:51.772Z,40.98
2018-04-18T08:34:51.935Z,40.50
2018-04-18T08:35:52.146Z,40.98
2018-04-18T08:36:52.263Z,40.42
2018-04-18T08:37:52.459Z,40.03
2018-04-18T08:38:52.564Z,40.73
2018-04-18T08:39:52.760Z,38.62
2018-04-18T08:40:52.958Z,37.34
2018-04-18T08:41:53.111Z,38.60
2018-04-18T08:42:53.221Z,39.47
2018-04-18T08:43:53.428Z,40.26
2018-04-18T08:44:53.621Z,39.70
2018-04-18T08:45:53.791Z,38.66
2018-04-18T08:46:53.962Z,38.15
2018-04-18T08:47:54.107Z,37.69
2018-04-18T08:48:54.325Z,37.98
2018-04-18T08:49:54.414Z,36.83
2018-04-18T08:50:54.578Z,36.06
2018-04-18T08:51:54.759Z,36.08
2018-04-18T08:52:54.977Z,33.67
2018-04-18T08:53:55.130Z,32.23
2018-04-18T08:54:55.283Z,33.59
2018-04-18T08:55:55.503Z,33.38
2018-04-18T08:56:55.663Z,35.03
2018-04-18T08:57:55.758Z,34.33
2018-04-18T08:58:55.975Z,36.19
2018-04-18T08:59:56.155Z,34.17
2018-04-18T09:00:56.308Z,33.59
2018-04-18T09:01:56.519Z,33.20
2018-04-18T09:02:56.707Z,33.98
2018-04-18T09:03:56.827Z,33.67
2018-04-18T09:04:57.013Z,32.31
2018-04-18T09:05:57.112Z,33.18
2018-04-18T09:06:57.311Z,35.30
2018-04-18T09:07:57.455Z,33.57
2018-04-18T09:08:57.687Z,35.03
2018-04-18T09:09:57.842Z,33.51
2018-04-18T09:10:58.029Z,32.32
2018-04-18T09:11:58.270Z,33.59
2018-04-18T09:12:58.390Z,33.39
2018-04-18T09:13:58.523Z,32.34
2018-04-18T09:14:58.656Z,33.69
2018-04-18T09:15:58.859Z,32.13
2018-04-18T09:16:59.100Z,31.16
2018-04-18T09:17:59.224Z,29.12
2018-04-18T09:18:59.352Z,30.68
2018-04-18T09:19:59.640Z,31.84
2018-04-18T09:20:59.778Z,29.91
2018-04-18T09:21:59.885Z,30.61
2018-04-18T09:23:00.076Z,29.55
2018-04-18T09:24:00.271Z,28.49
2018-04-18T09:25:00.402Z,28.09
2018-04-18T09:26:00.615Z,29.83
2018-04-18T09:27:00.713Z,29.15
2018-04-18T09:28:00.929Z,29.75
2018-04-18T09:29:01.095Z,27.61
2018-04-18T09:30:01.255Z,27.51
2018-04-18T09:31:01.431Z,28.19
2018-04-18T09:32:01.658Z,28.29
2018-04-18T09:33:01.742Z,28.29
2018-04-18T09:34:01.915Z,28.78
2018-04-18T09:35:02.115Z,28.97
2018-04-18T09:36:02.338Z,27.51
2018-04-18T09:37:02.484Z,28.79
2018-04-18T09:38:02.586Z,27.62
2018-04-18T09:39:02.797Z,28.22
2018-04-18T09:40:02.947Z,25.97
2018-04-18T09:41:03.131Z,30.55
2018-04-18T09:42:03.312Z,28.32
2018-04-18T09:43:03.479Z,28.43
2018-04-18T09:44:03.636Z,27.75
2018-04-18T09:45:03.869Z,28.34
2018-04-18T09:46:03.975Z,26.89
2018-04-18T09:47:04.167Z,26.20
2018-04-18T09:48:04.308Z,26.70
2018-04-18T09:49:04.467Z,25.43
2018-04-18T09:50:04.607Z,25.53
2018-04-18T09:51:04.792Z,27.58
2018-04-18T09:52:05.000Z,23.79
2018-04-18T09:53:05.108Z,22.92
2018-04-18T09:54:05.277Z,22.74
2018-04-18T09:55:05.507Z,23.34
2018-04-18T09:56:05.698Z,23.54
2018-04-18T09:57:05.784Z,23.63
2018-04-18T09:58:05.968Z,22.36
2018-04-18T09:59:06.130Z,22.27
2018-04-18T10:00:06.378Z,22.37
2018-04-18T10:01:06.464Z,22.19
2018-04-18T10:02:06.723Z,22.38
2018-04-18T10:03:06.834Z,20.43
2018-04-18T10:04:07.096Z,21.49
2018-04-18T10:05:07.219Z,21.22
2018-04-18T10:06:07.441Z,19.94
2018-04-18T10:07:07.657Z,17.88
2018-04-18T10:08:07.784Z,21.39
2018-04-18T10:09:07.917Z,19.83
2018-04-18T10:10:08.110Z,17.69
2018-04-18T10:11:08.301Z,19.08
2018-04-18T10:12:08.526Z,18.59
2018-04-18T10:13:08.693Z,17.22
2018-04-18T10:14:08.824Z,18.50
2018-04-18T10:15:09.016Z,17.43
2018-04-18T10:16:09.175Z,16.75
2018-04-18T10:17:09.436Z,18.70
2018-04-18T10:18:09.543Z,18.70
2018-04-18T10:19:09.660Z,18.79
2018-04-18T10:20:09.884Z,17.61
2018-04-18T10:21:10.004Z,16.35
2018-04-18T10:22:10.222Z,17.13
2018-04-18T10:23:10.406Z,17.32
2018-04-18T10:24:10.583Z,17.32
2018-04-18T10:25:10.739Z,18.70
2018-04-18T10:26:10.956Z,18.01
2018-04-18T10:27:11.074Z,15.55
2018-04-18T10:28:11.334Z,16.34
2018-04-18T10:29:11.443Z,17.31
2018-04-18T10:30:11.606Z,17.21
2018-04-18T10:31:11.764Z,16.32
2018-04-18T10:32:11.952Z,17.31
2018-04-18T10:33:12.137Z,17.31
2018-04-18T10:34:12.267Z,17.22
2018-04-18T10:35:12.521Z,18.38
2018-04-18T10:36:12.664Z,17.80
2018-04-18T10:37:12.864Z,17.12
2018-04-18T10:38:13.031Z,17.32
2018-04-18T10:39:13.166Z,17.13
2018-04-18T10:40:13.436Z,16.44
2018-04-18T10:41:13.629Z,16.05
2018-04-18T10:42:13.759Z,16.53
2018-04-18T10:43:13.943Z,18.49
2018-04-18T10:44:14.148Z,17.91
2018-04-18T10:45:14.311Z,17.03
2018-04-18T10:46:14.513Z,16.35
2018-04-18T10:47:14.691Z,17.12
2018-04-18T10:48:14.805Z,20.07
2018-04-18T10:49:14.974Z,19.59
2018-04-18T10:50:15.137Z,19.98
2018-04-18T10:51:15.396Z,19.70
2018-04-18T10:52:15.519Z,17.73
2018-04-18T10:53:15.717Z,16.66
2018-04-18T10:54:15.936Z,16.17
2018-04-18T10:55:16.069Z,17.14
2018-04-18T10:56:16.255Z,17.05
2018-04-18T10:57:16.471Z,18.71
2018-04-18T10:58:16.648Z,18.41
2018-04-18T10:59:16.824Z,18.99
2018-04-18T11:00:17.022Z,18.89
2018-04-18T11:01:17.189Z,21.34
2018-04-18T11:02:17.351Z,19.48
2018-04-18T11:03:17.602Z,18.40
2018-04-18T11:04:17.755Z,17.14
2018-04-18T11:05:17.841Z,19.40
2018-04-18T11:06:18.113Z,19.12
2018-04-18T11:07:18.307Z,16.27
2018-04-18T11:08:18.518Z,16.37
2018-04-18T11:09:18.619Z,17.26
2018-04-18T11:10:18.818Z,18.04
2018-04-18T11:11:18.978Z,17.84
2018-04-18T11:12:19.093Z,17.16
2018-04-18T11:13:19.413Z,17.07
2018-04-18T11:14:19.487Z,16.66
2018-04-18T11:15:19.734Z,18.04
2018-04-18T11:16:19.881Z,16.96
2018-04-18T11:17:20.101Z,16.38
2018-04-18T11:18:20.165Z,15.00
2018-04-18T11:19:20.423Z,15.39
2018-04-18T11:20:20.539Z,15.69
2018-04-18T11:21:20.736Z,16.56
2018-04-18T11:22:20.905Z,16.88
2018-04-18T11:23:21.093Z,16.49
2018-04-18T11:24:21.300Z,15.11
2018-04-18T11:25:21.452Z,15.21
2018-04-18T11:26:21.604Z,14.72
2018-04-18T11:27:21.829Z,14.23
2018-04-18T11:28:22.021Z,13.34
2018-04-18T11:29:22.206Z,12.85
2018-04-18T11:30:22.349Z,15.30
2018-04-18T11:31:22.549Z,13.82
2018-04-18T11:32:22.670Z,14.23
2018-04-18T11:33:22.870Z,16.18
2018-04-18T11:34:23.012Z,15.21
2018-04-18T11:35:23.316Z,15.12
2018-04-18T11:36:23.427Z,13.64
2018-04-18T11:37:23.651Z,13.34
2018-04-18T11:38:23.879Z,13.93
2018-04-18T11:39:23.977Z,15.50
2018-04-18T11:40:24.177Z,16.18
2018-04-18T11:41:24.354Z,14.72
2018-04-18T11:42:24.543Z,15.22
2018-04-18T11:43:24.731Z,15.91
2018-04-18T11:44:24.911Z,12.67
2018-04-18T11:45:25.063Z,12.97
2018-04-18T11:46:25.366Z,14.34
2018-04-18T11:47:25.460Z,13.37
2018-04-18T11:48:25.645Z,13.96
2018-04-18T11:49:25.936Z,13.07
2018-04-18T11:50:26.626Z,13.46
2018-04-18T11:51:26.415Z,13.75
2018-04-18T11:52:26.637Z,13.06
2018-04-18T11:53:26.719Z,14.14
2018-04-18T11:54:26.812Z,14.92
2018-04-18T11:55:27.220Z,14.83
2018-04-18T11:56:27.225Z,14.63
2018-04-18T11:57:27.427Z,13.17
2018-04-18T11:58:27.660Z,13.76
2018-04-18T11:59:27.842Z,13.08
2018-04-18T12:00:27.959Z,12.19
2018-04-18T12:01:28.198Z,13.16
2018-04-18T12:02:28.406Z,15.42
2018-04-18T12:03:28.621Z,13.46
2018-04-18T12:04:28.786Z,13.18
2018-04-18T12:05:29.020Z,13.09
2018-04-18T12:06:29.054Z,12.98
2018-04-18T12:07:29.345Z,12.68
2018-04-18T12:08:29.488Z,13.28
2018-04-18T12:09:29.654Z,13.86
2018-04-18T12:10:29.844Z,14.26
2018-04-18T12:11:29.988Z,14.56
2018-04-18T12:12:30.204Z,12.01
2018-04-18T12:13:30.424Z,12.47
2018-04-18T12:14:30.588Z,13.57
2018-04-18T12:15:30.833Z,13.17
2018-04-18T12:16:31.049Z,13.07
2018-04-18T12:17:31.252Z,14.15
2018-04-18T12:18:31.458Z,12.69
2018-04-18T12:19:31.589Z,14.35
2018-04-18T12:20:33.648Z,13.57
2018-04-18T12:21:31.964Z,16.23
2018-04-18T12:22:32.087Z,15.64
2018-04-18T12:23:32.302Z,13.37
2018-04-18T12:24:32.460Z,13.87
2018-04-18T12:25:32.717Z,13.57
2018-04-18T12:26:32.830Z,12.69
2018-04-18T12:27:32.979Z,11.80
2018-04-18T12:28:33.223Z,12.88
2018-04-18T12:29:33.393Z,12.29
2018-04-18T12:30:33.543Z,12.69
2018-04-18T12:31:33.819Z,12.89
2018-04-18T12:32:33.928Z,13.39
2018-04-18T12:33:34.108Z,12.61
2018-04-18T12:34:34.259Z,12.41
2018-04-18T12:35:34.448Z,12.22
2018-04-18T12:36:34.652Z,11.53
2018-04-18T12:37:34.782Z,10.75
2018-04-18T12:38:35.016Z,10.75
2018-04-18T12:39:35.192Z,10.46
2018-04-18T12:40:35.472Z,11.15
2018-04-18T12:41:35.531Z,12.51
2018-04-18T12:42:35.764Z,12.89
2018-04-18T12:43:35.910Z,15.45
2018-04-18T12:44:36.075Z,13.37
2018-04-18T12:45:36.284Z,11.81
2018-04-18T12:46:36.418Z,10.42
2018-04-18T12:47:36.627Z,11.21
2018-04-18T12:48:36.933Z,11.12
2018-04-18T12:49:37.106Z,12.01
2018-04-18T12:50:37.252Z,12.99
2018-04-18T12:51:37.457Z,10.53
2018-04-18T12:52:37.653Z,8.95
2018-04-18T12:53:37.822Z,8.27
2018-04-18T12:54:38.067Z,10.63
2018-04-18T12:55:38.176Z,10.13
2018-04-18T12:56:38.339Z,10.72
2018-04-18T12:57:38.614Z,9.64
2018-04-18T12:58:38.779Z,9.74
2018-04-18T12:59:38.899Z,11.21
2018-04-18T13:00:39.103Z,12.29
2018-04-18T13:01:39.224Z,12.49
2018-04-18T13:02:39.527Z,11.41
2018-04-18T13:03:39.674Z,11.13
2018-04-18T13:04:39.879Z,11.81
2018-04-18T13:05:40.046Z,12.30
2018-04-18T13:06:40.244Z,11.71
2018-04-18T13:07:40.518Z,13.37
2018-04-18T13:08:40.546Z,11.80
2018-04-18T13:09:40.841Z,11.02
2018-04-18T13:10:41.006Z,9.75
2018-04-18T13:11:41.166Z,8.76
2018-04-18T13:12:41.322Z,8.96
2018-04-18T13:13:41.502Z,9.45
2018-04-18T13:14:41.712Z,7.78
2018-04-18T13:15:41.906Z,7.98
2018-04-18T13:16:42.101Z,9.25
2018-04-18T13:17:42.190Z,11.03
2018-04-18T13:18:42.459Z,7.98
2018-04-18T13:19:42.629Z,7.10
2018-04-18T13:20:42.839Z,7.00
2018-04-18T13:21:42.961Z,7.59
2018-04-18T13:22:43.122Z,9.08
2018-04-18T13:23:43.351Z,8.38
2018-04-18T13:24:43.497Z,8.38
2018-04-18T13:25:43.895Z,8.88
2018-04-18T13:26:43.971Z,7.69
2018-04-18T13:27:44.221Z,7.20
2018-04-18T13:28:44.294Z,6.41
2018-04-18T13:29:44.479Z,6.81
2018-04-18T13:30:44.640Z,7.40
2018-04-18T13:31:44.822Z,7.20
2018-04-18T13:32:44.944Z,6.32
2018-04-18T13:33:45.260Z,6.12
2018-04-18T13:34:45.335Z,8.78
2018-04-18T13:35:45.611Z,9.86
2018-04-18T13:36:45.746Z,8.97
2018-04-18T13:37:45.869Z,9.47
2018-04-18T13:38:46.104Z,9.95
2018-04-18T13:39:46.256Z,7.79
2018-04-18T13:40:46.394Z,7.79
2018-04-18T13:41:46.649Z,7.10
2018-04-18T13:42:46.852Z,7.40
2018-04-18T13:43:46.978Z,7.98
2018-04-18T13:44:47.194Z,8.38
2018-04-18T13:45:47.408Z,9.96
2018-04-18T15:00:00.064Z,7.10
2018-04-18T15:41:37.802Z,6.29
2018-04-18T15:44:25.866Z,7.28
2018-04-18T15:45:24.078Z,6.49
2018-04-18T15:46:24.242Z,7.57
2018-04-18T15:47:24.591Z,6.49
2018-04-18T15:48:24.585Z,7.76
2018-04-18T15:49:24.802Z,8.84
2018-04-18T15:50:28.934Z,9.73
2018-04-18T15:51:25.073Z,7.26
2018-04-18T15:52:25.460Z,8.54
2018-04-18T15:53:28.079Z,9.91
2018-04-18T15:54:25.740Z,9.81
2018-04-18T15:55:25.866Z,10.11
2018-04-18T15:56:26.029Z,9.81
2018-04-18T15:57:26.187Z,8.73
2018-04-18T15:58:26.591Z,10.00
2018-04-18T15:59:26.721Z,10.50
2018-04-18T16:00:26.790Z,11.77
2018-04-18T16:01:27.106Z,9.91
2018-04-18T16:02:27.217Z,9.70
2018-04-18T16:03:27.642Z,11.18
2018-04-18T16:04:27.543Z,9.21
2018-04-18T16:05:27.733Z,9.31
2018-04-18T16:06:27.928Z,9.41
2018-04-18T16:07:28.138Z,8.23
2018-04-18T16:08:28.366Z,9.11
2018-04-18T16:09:28.393Z,9.01
2018-04-18T16:10:28.596Z,9.31
2018-04-18T16:11:28.760Z,9.31
2018-04-18T16:12:29.069Z,10.09
2018-04-18T16:13:29.223Z,12.24
2018-04-18T16:14:29.328Z,11.25
2018-04-18T16:15:29.518Z,12.04
2018-04-18T16:16:29.714Z,11.64
2018-04-18T16:17:29.873Z,13.11
2018-04-18T16:18:30.064Z,12.21
2018-04-18T16:19:30.400Z,11.63
2018-04-18T16:20:30.552Z,12.70
2018-04-18T16:21:30.642Z,13.39
2018-04-18T16:22:30.863Z,12.99
2018-04-18T16:23:31.131Z,12.79
2018-04-18T16:24:31.264Z,13.67
2018-04-18T16:25:31.473Z,13.66
2018-04-18T16:26:31.724Z,14.63
2018-04-18T16:27:31.924Z,13.94
2018-04-18T16:28:32.075Z,13.26
2018-04-18T16:29:32.441Z,13.25
2018-04-18T16:30:32.551Z,13.83
2018-04-18T16:31:32.597Z,14.90
2018-04-18T16:32:32.839Z,14.32
2018-04-18T16:33:32.996Z,15.68
2018-04-18T16:34:33.094Z,15.09
2018-04-18T16:35:33.186Z,16.36
2018-04-18T16:36:33.843Z,16.66
2018-04-18T16:37:33.664Z,16.17
2018-04-18T16:38:33.802Z,15.59
2018-04-18T16:39:34.006Z,15.70
2018-04-18T16:40:34.077Z,15.41
2018-04-18T16:41:34.496Z,15.41
2018-04-18T16:42:34.680Z,14.73
2018-04-18T16:43:34.984Z,16.29
2018-04-18T16:44:35.138Z,16.39
2018-04-18T16:45:35.262Z,16.19
2018-04-18T16:46:35.642Z,16.19
2018-04-18T16:47:35.966Z,15.60
2018-04-18T16:48:35.682Z,16.47
2018-04-18T16:49:35.970Z,17.63
2018-04-18T16:50:36.577Z,17.34
2018-04-18T16:51:36.531Z,17.05
2018-04-18T16:52:36.780Z,14.70
2018-04-18T16:53:37.197Z,16.64
2018-04-18T16:54:36.913Z,15.28
2018-04-18T16:55:37.041Z,16.14
2018-04-18T16:56:37.349Z,17.99
2018-04-18T16:57:37.679Z,19.15
2018-04-18T16:58:37.689Z,18.18
2018-04-18T16:59:38.299Z,17.68
2018-04-18T17:00:38.061Z,17.00
2018-04-18T17:01:38.691Z,17.58
2018-04-18T17:02:39.477Z,19.42
2018-04-18T17:03:38.885Z,19.62
2018-04-18T17:04:38.800Z,20.30
2018-04-18T17:05:38.900Z,18.26
2018-04-18T17:06:39.274Z,19.13
2018-04-18T17:07:39.272Z,21.26
2018-04-18T17:08:39.441Z,21.55
2018-04-18T17:09:39.697Z,21.45
2018-04-18T17:10:40.077Z,21.44
2018-04-18T17:11:40.097Z,21.54
2018-04-18T17:12:40.308Z,21.34
2018-04-18T17:13:40.413Z,20.96
2018-04-18T17:14:42.051Z,20.96
2018-04-18T17:15:45.405Z,22.11
2018-04-18T17:16:41.133Z,22.69
2018-04-18T17:17:41.243Z,23.47
2018-04-18T17:18:41.468Z,24.62
2018-04-18T17:19:41.786Z,23.94
2018-04-18T17:20:43.139Z,23.85
2018-04-18T17:21:42.108Z,24.23
2018-04-18T17:22:42.308Z,22.30
2018-04-18T17:23:42.377Z,23.75
2018-04-18T17:24:43.954Z,24.13
2018-04-18T17:25:43.568Z,23.54
2018-04-18T17:26:43.061Z,24.32
2018-04-18T17:27:43.974Z,23.74
2018-04-18T17:28:43.327Z,25.29
2018-04-18T17:29:43.490Z,24.71
2018-04-18T17:30:43.781Z,25.19
2018-04-18T17:31:44.212Z,27.11
2018-04-18T17:32:44.400Z,27.40
2018-04-18T17:33:44.612Z,27.21
2018-04-18T17:34:46.159Z,27.31
2018-04-18T17:35:44.854Z,27.00
2018-04-18T17:36:44.954Z,25.55
2018-04-18T17:37:45.263Z,24.38
2018-04-18T17:38:45.365Z,25.73
2018-04-18T17:39:45.532Z,26.99
2018-04-18T17:40:45.533Z,27.86
2018-04-18T17:41:45.879Z,28.64
2018-04-18T17:42:45.990Z,28.64
2018-04-18T17:43:46.264Z,29.01
2018-04-18T17:44:48.149Z,29.69
2018-04-18T17:45:46.578Z,29.88
2018-04-18T17:46:46.722Z,30.17
2018-04-18T17:47:46.994Z,30.54
2018-04-18T17:48:47.140Z,31.12
2018-04-18T17:49:47.305Z,30.91
2018-04-18T17:50:47.439Z,31.49
2018-04-18T17:51:47.789Z,30.43
2018-04-18T17:52:47.804Z,28.40